Kiamichi Christian Mission, Oklahoma
Current Conditions -  °F | °C
As of 10:55 PM on Friday 19 Dec 2014 (Local Time) from KRKR Reporting Station
Haze Haze  
Wind Chill: 42°   Ceiling: 1100
Heat Index: 42°   Visibility: 5mi
Dew Point: 40°   Wind: 3mph
Humidity: 92%   Direction: 200°SSW
Pressure: 30.23"   Gusts: NA
Location:  34.5987°N, 94.9886°W
Report Text: KRKR 200455Z AUTO 20003KT 5SM BR OVC011 06/04 A3023 RMK AO2 T00550043
Loading
Personal Weather Stations






























Interactive Weather Map New forecast layout! Learn more

10-Day Weather Forecast

Advertisements
Track Severe Weather on mobile